createdAt,value
2018-03-28T00:02:17.120Z,27.90
2018-03-28T00:04:45.412Z,27.77
2018-03-28T00:07:12.952Z,26.53
2018-03-28T00:09:41.231Z,24.00
2018-03-28T00:12:08.751Z,25.70
2018-03-28T00:14:36.273Z,24.00
2018-03-28T00:17:03.791Z,24.73
2018-03-28T00:19:31.308Z,23.07
2018-03-28T00:21:58.828Z,23.67
2018-03-28T00:24:26.370Z,20.53
2018-03-28T00:26:53.936Z,23.27
2018-03-28T00:29:21.456Z,21.80
2018-03-28T00:31:48.977Z,22.37
2018-03-28T00:34:17.271Z,21.33
2018-03-28T00:36:44.792Z,22.07
2018-03-28T00:39:12.336Z,22.17
2018-03-28T00:41:39.861Z,21.33
2018-03-28T00:44:07.377Z,22.37
2018-03-28T00:46:34.894Z,23.23
2018-03-28T00:49:02.426Z,21.57
2018-03-28T00:51:36.799Z,24.60
2018-03-28T00:54:05.261Z,22.97
2018-03-28T00:56:32.806Z,24.47
2018-03-28T00:59:00.352Z,23.10
2018-03-28T01:01:28.662Z,21.87
2018-03-28T01:03:56.183Z,23.30
2018-03-28T01:06:24.471Z,24.80
2018-03-28T01:08:51.985Z,23.83
2018-03-28T01:11:19.559Z,23.67
2018-03-28T01:13:47.083Z,23.33
2018-03-28T01:16:14.605Z,19.57
2018-03-28T01:18:42.128Z,22.47
2018-03-28T01:21:09.652Z,23.30
2018-03-28T01:23:37.173Z,24.03
2018-03-28T01:26:04.714Z,23.33
2018-03-28T01:28:32.239Z,23.50
2018-03-28T01:30:59.772Z,24.93
2018-03-28T01:33:27.342Z,24.53
2018-03-28T01:35:54.888Z,24.10
2018-03-28T01:38:22.422Z,23.57
2018-03-28T01:40:49.944Z,23.90
2018-03-28T01:43:17.467Z,22.60
2018-03-28T01:45:45.751Z,24.07
2018-03-28T01:48:14.047Z,22.50
2018-03-28T01:50:41.565Z,25.37
2018-03-28T01:53:09.855Z,19.40
2018-03-28T01:55:37.375Z,24.87
2018-03-28T01:58:04.908Z,22.23
2018-03-28T02:00:32.427Z,25.43
2018-03-28T02:03:00.728Z,23.57
2018-03-28T02:05:28.310Z,23.50
2018-03-28T02:07:55.827Z,24.57
2018-03-28T02:10:23.355Z,24.77
2018-03-28T02:12:50.871Z,24.20
2018-03-28T02:15:18.391Z,23.00
2018-03-28T02:17:45.927Z,24.10
2018-03-28T02:20:13.452Z,23.33
2018-03-28T02:22:40.963Z,24.97
2018-03-28T02:25:08.485Z,23.67
2018-03-28T02:27:36.908Z,21.53
2018-03-28T02:30:04.422Z,24.20
2018-03-28T02:32:31.940Z,25.00
2018-03-28T02:34:59.478Z,25.90
2018-03-28T02:37:27.037Z,19.60
2018-03-28T02:39:54.576Z,24.43
2018-03-28T02:42:22.095Z,22.70
2018-03-28T02:44:50.410Z,23.13
2018-03-28T02:47:17.961Z,24.03
2018-03-28T02:49:45.479Z,25.17
2018-03-28T02:52:13.007Z,25.00
2018-03-28T02:54:40.922Z,25.57
2018-03-28T02:57:08.466Z,25.87
2018-03-28T02:59:35.995Z,25.77
2018-03-28T03:02:03.504Z,25.53
2018-03-28T03:04:31.031Z,26.07
2018-03-28T03:06:58.612Z,26.70
2018-03-28T03:09:26.171Z,22.60
2018-03-28T03:11:53.698Z,26.17
2018-03-28T03:14:21.221Z,25.40
2018-03-28T03:16:48.738Z,28.37
2018-03-28T03:19:16.275Z,21.63
2018-03-28T03:21:43.794Z,28.90
2018-03-28T03:24:11.312Z,25.03
2018-03-28T03:26:38.843Z,28.50
2018-03-28T03:29:06.411Z,29.07
2018-03-28T03:31:33.948Z,29.70
2018-03-28T03:34:01.485Z,28.93
2018-03-28T03:36:29.905Z,25.70
2018-03-28T03:38:57.439Z,30.40
2018-03-28T03:41:25.740Z,29.00
2018-03-28T03:43:53.267Z,29.47
2018-03-28T03:46:21.546Z,30.90
2018-03-28T03:48:49.081Z,30.97
2018-03-28T03:51:16.658Z,30.83
2018-03-28T03:53:44.125Z,32.33
2018-03-28T03:56:11.650Z,30.70
2018-03-28T03:58:39.189Z,30.67
2018-03-28T04:01:06.785Z,31.57
2018-03-28T04:03:34.320Z,32.87
2018-03-28T04:06:01.846Z,31.83
2018-03-28T04:08:29.372Z,32.40
2018-03-28T04:10:56.895Z,32.37
2018-03-28T04:13:24.422Z,34.17
2018-03-28T04:15:52.722Z,34.87
2018-03-28T04:18:20.244Z,32.77
2018-03-28T04:20:47.852Z,32.03
2018-03-28T04:23:15.357Z,33.27
2018-03-28T04:25:42.882Z,34.57
2018-03-28T04:28:10.395Z,33.27
2018-03-28T04:30:38.680Z,32.97
2018-03-28T04:33:06.995Z,34.30
2018-03-28T04:35:34.515Z,33.93
2018-03-28T04:38:02.805Z,32.73
2018-03-28T04:40:30.332Z,34.53
2018-03-28T04:42:57.853Z,34.63
2018-03-28T04:45:25.372Z,32.97
2018-03-28T04:47:52.906Z,33.07
2018-03-28T04:50:20.433Z,33.20
2018-03-28T04:52:47.943Z,34.67
2018-03-28T04:55:16.247Z,35.87
2018-03-28T04:57:43.784Z,33.93
2018-03-28T05:00:12.063Z,34.27
2018-03-28T05:02:40.343Z,33.47
2018-03-28T05:05:08.628Z,32.00
2018-03-28T05:07:36.950Z,32.77
2018-03-28T05:10:04.504Z,29.97
2018-03-28T05:12:33.156Z,30.35
2018-03-28T05:15:01.931Z,31.30
2018-03-28T05:17:29.471Z,32.93
2018-03-28T05:19:57.023Z,31.97
2018-03-28T05:22:24.546Z,31.97
2018-03-28T05:24:52.075Z,32.33
2018-03-28T05:27:19.618Z,30.70
2018-03-28T05:29:47.140Z,31.30
2018-03-28T05:32:14.655Z,29.60
2018-03-28T05:34:42.949Z,31.50
2018-03-28T05:37:10.462Z,31.43
2018-03-28T05:39:38.076Z,32.20
2018-03-28T05:42:05.595Z,31.33
2018-03-28T05:44:33.122Z,31.37
2018-03-28T05:47:00.639Z,32.27
2018-03-28T05:49:28.949Z,30.73
2018-03-28T05:51:56.512Z,30.70
2018-03-28T05:54:24.036Z,29.73
2018-03-28T05:56:51.576Z,30.53
2018-03-28T05:59:19.104Z,30.80
2018-03-28T06:01:46.623Z,28.77
2018-03-28T06:04:14.149Z,31.53
2018-03-28T06:06:41.681Z,32.13
2018-03-28T06:09:09.469Z,31.07
2018-03-28T06:11:36.985Z,32.17
2018-03-28T06:14:04.528Z,32.10
2018-03-28T06:16:32.811Z,31.90
2018-03-28T06:19:00.923Z,31.37
2018-03-28T06:21:28.473Z,32.93
2018-03-28T06:23:55.992Z,33.13
2018-03-28T06:26:23.520Z,32.80
2018-03-28T06:28:51.057Z,31.83
2018-03-28T06:31:18.621Z,32.83
2018-03-28T06:33:46.176Z,34.33
2018-03-28T06:36:13.733Z,35.17
2018-03-28T06:38:41.241Z,36.10
2018-03-28T06:41:08.757Z,34.63
2018-03-28T06:43:36.281Z,36.17
2018-03-28T06:46:03.827Z,36.23
2018-03-28T06:48:31.747Z,36.47
2018-03-28T06:50:59.859Z,38.97
2018-03-28T06:53:27.424Z,36.40
2018-03-28T06:55:54.952Z,38.30
2018-03-28T06:58:22.511Z,39.53
2018-03-28T07:00:50.025Z,43.27
2018-03-28T07:03:17.552Z,41.87
2018-03-28T07:05:45.186Z,42.47
2018-03-28T07:08:12.704Z,43.63
2018-03-28T07:10:40.248Z,42.20
2018-03-28T07:13:07.780Z,42.47
2018-03-28T07:15:35.351Z,44.40
2018-03-28T07:18:02.872Z,44.70
2018-03-28T07:20:30.414Z,44.60
2018-03-28T07:22:57.926Z,45.53
2018-03-28T07:25:25.488Z,46.03
2018-03-28T07:27:53.023Z,44.20
2018-03-28T07:30:20.548Z,42.00
2018-03-28T07:32:48.079Z,43.13
2018-03-28T07:35:15.606Z,44.60
2018-03-28T07:37:43.127Z,44.17
2018-03-28T07:40:10.669Z,42.50
2018-03-28T07:42:38.203Z,40.97
2018-03-28T07:45:05.756Z,39.87
2018-03-28T07:47:33.282Z,42.80
2018-03-28T07:50:00.802Z,35.90
2018-03-28T07:52:28.360Z,36.50
2018-03-28T07:54:55.893Z,37.00
2018-03-28T07:57:24.033Z,37.17
2018-03-28T07:59:51.556Z,34.37
2018-03-28T08:02:19.069Z,32.80
2018-03-28T08:04:46.636Z,31.73
2018-03-28T08:07:14.145Z,32.73
2018-03-28T08:09:41.661Z,30.90
2018-03-28T08:12:09.195Z,32.47
2018-03-28T08:14:36.729Z,30.20
2018-03-28T08:17:04.255Z,29.97
2018-03-28T08:19:32.320Z,27.67
2018-03-28T08:21:59.845Z,27.10
2018-03-28T08:24:27.380Z,25.73
2018-03-28T08:26:54.896Z,27.93
2018-03-28T08:29:22.423Z,28.73
2018-03-28T08:31:50.709Z,27.03
2018-03-28T08:34:18.230Z,28.63
2018-03-28T08:36:45.755Z,28.70
2018-03-28T08:39:13.286Z,32.73
2018-03-28T08:41:40.819Z,31.30
2018-03-28T08:44:08.386Z,34.13
2018-03-28T08:46:35.893Z,29.27
2018-03-28T08:49:03.416Z,32.43
2018-03-28T08:51:30.933Z,31.53
2018-03-28T08:53:58.451Z,37.20
2018-03-28T08:56:25.970Z,32.03
2018-03-28T08:58:53.520Z,34.33
2018-03-28T09:01:21.029Z,35.53
2018-03-28T09:03:48.565Z,32.37
2018-03-28T09:06:16.208Z,29.63
2018-03-28T09:08:43.731Z,28.60
2018-03-28T09:11:11.247Z,30.50
2018-03-28T09:13:38.771Z,29.93
2018-03-28T09:16:06.304Z,30.10
2018-03-28T09:18:34.602Z,29.53
2018-03-28T09:21:02.119Z,32.50
2018-03-28T09:23:30.407Z,31.70
2018-03-28T09:25:57.936Z,31.77
2018-03-28T09:28:25.514Z,32.53
2018-03-28T09:30:53.063Z,33.07
2018-03-28T09:33:20.591Z,31.73
2018-03-28T09:35:48.102Z,30.30
2018-03-28T09:38:16.391Z,31.10
2018-03-28T09:40:44.272Z,31.40
2018-03-28T09:43:11.783Z,31.53
2018-03-28T09:45:39.309Z,29.23
2018-03-28T09:48:06.840Z,30.20
2018-03-28T09:50:35.190Z,30.53
2018-03-28T09:53:02.714Z,29.93
2018-03-28T09:55:30.237Z,28.13
2018-03-28T09:57:58.615Z,26.10
2018-03-28T10:00:26.890Z,27.30
2018-03-28T10:03:00.006Z,23.60
2018-03-28T10:05:33.096Z,23.77
2018-03-28T10:08:00.688Z,25.00
2018-03-28T10:10:28.232Z,25.37
2018-03-28T10:12:55.751Z,27.00
2018-03-28T10:15:23.328Z,28.17
2018-03-28T10:17:51.623Z,27.60
2018-03-28T10:20:19.154Z,26.13
2018-03-28T10:22:46.671Z,27.07
2018-03-28T10:25:14.276Z,27.77
2018-03-28T10:27:41.822Z,27.20
2018-03-28T10:30:09.341Z,26.33
2018-03-28T10:32:36.869Z,25.50
2018-03-28T10:35:05.204Z,22.07
2018-03-28T10:37:32.676Z,23.13
2018-03-28T10:40:00.220Z,19.40
2018-03-28T10:42:27.751Z,20.33
2018-03-28T10:44:55.268Z,18.90
2018-03-28T10:47:22.911Z,18.67
2018-03-28T10:49:50.434Z,17.33
2018-03-28T10:52:17.960Z,17.47
2018-03-28T10:54:45.491Z,16.53
2018-03-28T10:57:13.012Z,17.23
2018-03-28T10:59:40.519Z,17.80
2018-03-28T11:02:08.052Z,16.00
2018-03-28T11:04:35.650Z,14.37
2018-03-28T11:07:03.131Z,14.73
2018-03-28T11:09:31.417Z,14.43
2018-03-28T11:11:58.947Z,14.67
2018-03-28T11:14:26.480Z,13.67
2018-03-28T11:16:54.000Z,13.40
2018-03-28T11:19:21.527Z,15.57
2018-03-28T11:21:49.081Z,16.23
2018-03-28T11:24:16.660Z,13.90
2018-03-28T11:26:44.982Z,15.17
2018-03-28T11:29:12.500Z,14.30
2018-03-28T11:31:40.799Z,15.73
2018-03-28T11:34:09.192Z,14.97
2018-03-28T11:36:36.723Z,16.43
2018-03-28T11:39:06.066Z,16.53
2018-03-28T11:41:33.584Z,15.53
2018-03-28T11:44:01.112Z,16.70
2018-03-28T11:46:28.646Z,15.70
2018-03-28T11:48:56.199Z,15.20
2018-03-28T11:51:23.715Z,16.67
2018-03-28T11:53:51.246Z,16.23
2018-03-28T11:56:18.778Z,16.03
2018-03-28T11:58:46.295Z,15.67
2018-03-28T12:01:14.574Z,16.00
2018-03-28T12:03:42.855Z,14.80
2018-03-28T12:06:10.373Z,13.87
2018-03-28T12:08:37.893Z,12.40
2018-03-28T12:11:05.423Z,13.97
2018-03-28T12:13:32.942Z,11.87
2018-03-28T12:16:00.481Z,11.73
2018-03-28T12:18:27.996Z,11.17
2018-03-28T12:20:55.515Z,10.53
2018-03-28T12:23:26.839Z,9.30
2018-03-28T12:25:54.348Z,8.40
2018-03-28T12:28:27.775Z,8.67
2018-03-28T12:30:55.307Z,7.30
2018-03-28T12:33:22.874Z,7.67
2018-03-28T12:35:50.384Z,6.00
2018-03-28T12:38:17.900Z,6.00
2018-03-28T12:40:45.412Z,6.13
2018-03-28T12:43:12.935Z,5.90
2018-03-28T12:45:40.479Z,5.27
2018-03-28T12:48:07.994Z,5.50
2018-03-28T12:50:35.718Z,5.33
2018-03-28T12:53:03.065Z,6.10
2018-03-28T12:55:30.593Z,5.40
2018-03-28T12:57:58.134Z,5.40
2018-03-28T13:00:26.449Z,5.40
2018-03-28T13:02:53.959Z,5.50
2018-03-28T13:05:21.492Z,5.00
2018-03-28T13:07:49.036Z,4.57
2018-03-28T13:10:16.553Z,4.50
2018-03-28T13:12:44.064Z,4.23
2018-03-28T13:15:11.594Z,4.30
2018-03-28T13:17:39.115Z,4.23
2018-03-28T13:20:06.644Z,12.30
2018-03-28T13:22:34.174Z,4.00
2018-03-28T13:25:01.686Z,3.70
2018-03-28T13:27:29.960Z,3.87
2018-03-28T13:29:57.489Z,5.10
2018-03-28T13:32:25.063Z,4.40
2018-03-28T13:34:52.589Z,4.13
2018-03-28T13:37:20.112Z,4.07
2018-03-28T13:39:47.658Z,4.50
2018-03-28T13:42:16.022Z,4.07
2018-03-28T13:44:43.549Z,4.30
2018-03-28T13:47:11.076Z,4.07
2018-03-28T13:49:38.592Z,5.57
2018-03-28T13:52:06.114Z,4.77
2018-03-28T13:54:33.915Z,4.70
2018-03-28T13:57:01.417Z,4.60
2018-03-28T13:59:29.687Z,4.10
2018-03-28T14:01:57.211Z,4.40
2018-03-28T14:04:24.738Z,4.50
2018-03-28T14:06:52.243Z,4.60
2018-03-28T14:09:19.839Z,4.50
2018-03-28T14:11:47.360Z,4.80
2018-03-28T14:14:14.883Z,5.47
2018-03-28T14:16:42.444Z,5.17
2018-03-28T14:19:09.999Z,5.20
2018-03-28T14:21:37.527Z,5.27
2018-03-28T14:24:05.826Z,5.17
2018-03-28T14:26:33.405Z,4.87
2018-03-28T14:29:01.689Z,5.00
2018-03-28T14:31:29.211Z,5.17
2018-03-28T14:33:57.491Z,5.10
2018-03-28T14:36:25.043Z,5.63
2018-03-28T14:38:52.552Z,5.50
2018-03-28T14:41:20.070Z,6.00
2018-03-28T14:43:47.591Z,5.47
2018-03-28T14:46:15.113Z,5.50
2018-03-28T14:48:42.623Z,5.90
2018-03-28T14:51:10.135Z,5.20
2018-03-28T14:53:37.649Z,5.70
2018-03-28T14:56:05.177Z,5.80
2018-03-28T14:58:32.702Z,6.27
2018-03-28T15:01:00.205Z,6.70
2018-03-28T15:03:27.851Z,6.50
2018-03-28T15:05:55.374Z,6.77
2018-03-28T15:08:22.940Z,7.23
2018-03-28T15:10:51.211Z,6.70
2018-03-28T15:13:18.995Z,6.87
2018-03-28T15:15:46.504Z,7.20
2018-03-28T15:18:14.039Z,6.73
2018-03-28T15:20:41.666Z,7.87
2018-03-28T15:23:09.589Z,6.87
2018-03-28T15:25:37.130Z,7.47
2018-03-28T15:28:04.652Z,7.07
2018-03-28T15:30:32.191Z,6.20
2018-03-28T15:32:59.714Z,7.40
2018-03-28T15:35:27.219Z,7.47
2018-03-28T15:37:54.732Z,7.97
2018-03-28T15:40:22.251Z,7.50
2018-03-28T15:42:49.772Z,7.13
2018-03-28T15:45:17.287Z,7.03
2018-03-28T15:47:45.663Z,6.80
2018-03-28T15:50:13.931Z,6.60
2018-03-28T15:52:42.209Z,6.40
2018-03-28T15:55:09.762Z,6.80
2018-03-28T15:57:37.287Z,6.43
2018-03-28T16:00:04.818Z,6.30
2018-03-28T16:02:32.327Z,7.73
2018-03-28T16:05:00.452Z,7.37
2018-03-28T16:07:27.955Z,7.03
2018-03-28T16:09:55.474Z,5.20
2018-03-28T16:12:23.002Z,6.20
2018-03-28T16:14:51.288Z,6.30
2018-03-28T16:17:18.803Z,6.67
2018-03-28T16:19:46.359Z,5.63
2018-03-28T16:22:13.881Z,8.03
2018-03-28T16:24:41.399Z,8.53
2018-03-28T16:27:08.913Z,6.50
2018-03-28T16:29:36.435Z,6.17
2018-03-28T16:32:04.748Z,6.63
2018-03-28T16:34:46.715Z,5.93
2018-03-28T16:37:15.013Z,5.40
2018-03-28T16:39:42.536Z,6.50
2018-03-28T16:42:10.192Z,5.40
2018-03-28T16:44:37.735Z,4.13
2018-03-28T16:47:05.731Z,4.30
2018-03-28T16:49:33.247Z,4.53
2018-03-28T16:52:01.448Z,3.87
2018-03-28T16:54:29.001Z,3.90
2018-03-28T16:56:56.784Z,3.90
2018-03-28T16:59:24.305Z,2.67
2018-03-28T17:01:51.917Z,3.77
2018-03-28T17:04:19.438Z,4.23
2018-03-28T17:06:46.961Z,3.43
2018-03-28T17:09:14.472Z,4.00
2018-03-28T17:11:42.035Z,2.37
2018-03-28T17:14:09.551Z,3.73
2018-03-28T17:16:37.148Z,3.47
2018-03-28T17:19:04.649Z,3.97
2018-03-28T17:21:32.175Z,3.57
2018-03-28T17:23:59.699Z,4.00
2018-03-28T17:26:27.226Z,2.93
2018-03-28T17:28:54.740Z,3.43
2018-03-28T17:31:22.248Z,4.40
2018-03-28T17:33:50.524Z,4.33
2018-03-28T17:36:18.075Z,4.60
2018-03-28T17:38:45.572Z,5.23
2018-03-28T17:41:13.108Z,4.97
2018-03-28T17:43:40.615Z,5.40
2018-03-28T17:46:08.133Z,5.57
2018-03-28T17:48:35.657Z,4.90
2018-03-28T17:51:03.170Z,6.00
2018-03-28T17:53:30.687Z,5.83
2018-03-28T17:55:58.214Z,4.63
2018-03-28T17:58:25.734Z,5.23
2018-03-28T18:00:53.292Z,4.70
2018-03-28T18:03:21.605Z,5.40
2018-03-28T18:05:49.258Z,4.40
2018-03-28T18:08:16.833Z,4.33
2018-03-28T18:10:44.417Z,4.13
2018-03-28T18:13:11.922Z,4.57
2018-03-28T18:15:40.220Z,4.30
2018-03-28T18:18:07.802Z,4.03
2018-03-28T18:20:35.377Z,4.23
2018-03-28T18:23:02.900Z,4.30
2018-03-28T18:25:30.436Z,4.87
2018-03-28T18:27:58.732Z,4.80
2018-03-28T18:30:27.725Z,2.70
2018-03-28T18:32:56.028Z,4.20
2018-03-28T18:35:23.551Z,5.27
2018-03-28T18:37:51.822Z,4.57
2018-03-28T18:40:19.358Z,5.90
2018-03-28T18:42:46.878Z,5.13
2018-03-28T18:45:14.390Z,3.93
2018-03-28T18:47:41.965Z,2.87
2018-03-28T18:50:09.513Z,3.57
2018-03-28T18:52:37.021Z,3.37
2018-03-28T18:55:04.551Z,4.30
2018-03-28T18:57:32.092Z,4.10
2018-03-28T18:59:59.610Z,4.20
2018-03-28T19:02:27.131Z,4.70
2018-03-28T19:04:55.414Z,4.37
2018-03-28T19:07:22.939Z,4.17
2018-03-28T19:09:50.552Z,3.70
2018-03-28T19:12:18.059Z,3.80
2018-03-28T19:14:45.568Z,3.90
2018-03-28T19:17:13.083Z,4.50
2018-03-28T19:19:40.606Z,3.93
2018-03-28T19:22:08.135Z,3.80
2018-03-28T19:24:35.679Z,3.13
2018-03-28T19:27:03.208Z,3.97
2018-03-28T19:29:30.713Z,4.10
2018-03-28T19:31:59.006Z,3.60
2018-03-28T19:34:26.520Z,3.97
2018-03-28T19:36:54.041Z,3.93
2018-03-28T19:39:23.561Z,4.20
2018-03-28T19:41:51.134Z,3.80
2018-03-28T19:44:18.664Z,4.07
2018-03-28T19:46:46.424Z,3.40
2018-03-28T19:49:13.948Z,3.90
2018-03-28T19:51:41.615Z,3.93
2018-03-28T19:54:09.155Z,3.60
2018-03-28T19:56:36.683Z,4.13
2018-03-28T19:59:04.193Z,4.30
2018-03-28T20:01:31.712Z,4.60
2018-03-28T20:03:59.512Z,3.83
2018-03-28T20:06:27.066Z,4.27
2018-03-28T20:08:55.351Z,4.20
2018-03-28T20:11:22.859Z,3.83
2018-03-28T20:13:51.159Z,5.13
2018-03-28T20:16:18.679Z,4.90
2018-03-28T20:18:46.954Z,5.23
2018-03-28T20:21:15.250Z,5.10
2018-03-28T20:23:42.767Z,6.23
2018-03-28T20:26:10.297Z,5.90
2018-03-28T20:28:37.903Z,6.30
2018-03-28T20:31:05.416Z,6.50
2018-03-28T20:33:32.927Z,6.13
2018-03-28T20:36:01.255Z,6.50
2018-03-28T20:38:29.431Z,6.17
2018-03-28T20:40:56.946Z,5.40
2018-03-28T20:43:25.237Z,5.93
2018-03-28T20:45:53.538Z,3.90
2018-03-28T20:48:21.053Z,4.07
2018-03-28T20:50:49.360Z,3.60
2018-03-28T20:53:16.878Z,4.40
2018-03-28T20:55:44.397Z,4.33
2018-03-28T20:58:11.918Z,3.80
2018-03-28T21:00:40.251Z,3.70
2018-03-28T21:03:07.767Z,4.17
2018-03-28T21:05:36.042Z,3.70
2018-03-28T21:08:04.320Z,4.13
2018-03-28T21:10:31.888Z,4.07
2018-03-28T21:13:00.165Z,3.77
2018-03-28T21:15:27.695Z,4.37
2018-03-28T21:17:55.217Z,3.40
2018-03-28T21:20:22.733Z,3.67
2018-03-28T21:22:50.261Z,3.33
2018-03-28T21:25:17.775Z,3.83
2018-03-28T21:27:45.340Z,3.90
2018-03-28T21:30:12.851Z,3.70
2018-03-28T21:32:40.360Z,3.90
2018-03-28T21:35:07.892Z,3.73
2018-03-28T21:37:35.411Z,3.57
2018-03-28T21:40:02.987Z,3.67
2018-03-28T21:42:30.454Z,3.60
2018-03-28T21:44:57.991Z,3.80
2018-03-28T21:47:25.496Z,3.47
2018-03-28T21:49:53.020Z,3.60
2018-03-28T21:52:20.529Z,3.57
2018-03-28T21:54:48.818Z,3.00
2018-03-28T21:57:16.335Z,3.60
2018-03-28T21:59:43.865Z,3.80
2018-03-28T22:02:11.380Z,3.47
2018-03-28T22:04:38.902Z,3.17
2018-03-28T22:07:06.403Z,3.50
2018-03-28T22:09:33.911Z,3.53
2018-03-28T22:12:01.411Z,3.60
2018-03-28T22:14:29.695Z,3.43
2018-03-28T22:16:57.976Z,3.53
2018-03-28T22:19:25.505Z,3.30
2018-03-28T22:21:53.030Z,3.80
2018-03-28T22:24:20.543Z,3.53
2018-03-28T22:26:49.443Z,3.70
2018-03-28T22:29:16.970Z,3.80
2018-03-28T22:31:44.484Z,3.30
2018-03-28T22:34:12.033Z,3.77
2018-03-28T22:36:39.560Z,3.00
2018-03-28T22:39:07.079Z,3.90
2018-03-28T22:41:34.588Z,3.40
2018-03-28T22:44:02.253Z,3.70
2018-03-28T22:46:29.779Z,3.53
2018-03-28T22:48:57.915Z,3.80
2018-03-28T22:51:26.199Z,3.23
2018-03-28T22:53:53.717Z,3.87
2018-03-28T22:56:21.223Z,3.80
2018-03-28T22:58:48.757Z,3.60
2018-03-28T23:01:17.938Z,4.90
2018-03-28T23:03:45.456Z,4.50
2018-03-28T23:06:12.976Z,4.17
2018-03-28T23:08:41.273Z,4.80
2018-03-28T23:11:09.611Z,4.37
2018-03-28T23:13:37.164Z,5.03
2018-03-28T23:16:04.692Z,4.73
2018-03-28T23:18:32.220Z,5.30
2018-03-28T23:20:59.742Z,5.13
2018-03-28T23:23:27.251Z,5.40
2018-03-28T23:25:55.527Z,5.10
2018-03-28T23:28:23.821Z,5.50
2018-03-28T23:30:51.327Z,5.20
2018-03-28T23:33:18.849Z,5.23
2018-03-28T23:35:46.415Z,4.03
2018-03-28T23:38:14.011Z,5.30
2018-03-28T23:40:41.539Z,5.70
2018-03-28T23:43:09.052Z,5.70
2018-03-28T23:45:37.327Z,6.03
2018-03-28T23:48:04.834Z,6.27
2018-03-28T23:50:32.348Z,6.23
2018-03-28T23:53:00.649Z,7.33
2018-03-28T23:55:28.158Z,6.77
2018-03-28T23:57:55.672Z,6.43
